Ketchikan International Airport

Date: 2024-06-11 08:20:00Z

Type: SPECI

Weather: Light Rain

Winds: Winds Calm

Visibility: 3

Ceiling (AGL FT): Clouds FEW at 800, SCATTERED at 2000, OVERCAST at 2500, BROKEN at 7000

RAW METAR: PAKT 110820Z AUTO 00000KT 3SM -RA BR FEW008 SCT020 OVC025 11/10 A2981 RMK AO2 P0002 T01110100 TSNO

project-image